Record high temperature 37.4°C Record low temperature -14.6°C Record high gust 68.5 km/h Record high average 47.2 km/h Record daily rain 55.3 mm Record low windchill -17.5°C Record high barometer 1045.0 hPa Record low barometer 972.0 hPa
Daily high pressure 1014.0 hPa Daily low pressure 1008.0 hPa Daily low windchill 6.2°C Daily high heat index 13.3°C Daily high gust speed 43.1 kmh SSE Daily high average speed 25.2 kmh SSE

This page is updated from recent data collected by a WMR200 weather station Use the Reload or Refresh facility on your browser to retrieve the latest data.

Status report of weather station: Bienvenue sur la Station Météo de Godarville



Weather report/warning/Metars

Alexandroupoli Airport , Greece (LGAL) 40-51N 025-55E 3M
Oct 22, 2017 - 10:50 AM EDT / 2017.10.22 1450 UTC
Wind: Variable at 3 MPH (3 KT):0
Visibility: greater than 7 mile(s):0
Temperature: 71 F (22 C)
Dew Point: 60 F (16 C)
Relative Humidity: 68%
Pressure (altimeter): 29.91 in. Hg (1013 hPa)
ob: LGAL 221450Z VRB03KT CAVOK 22/16 Q1013
cycle: 15

Charleroi / Gosselies, Belgium (EBCI) 50-28N 004-27E 192M
Oct 22, 2017 - 10:50 AM EDT / 2017.10.22 1450 UTC
Wind: from the WSW (250 degrees) at 12 MPH (10 KT) (direction variable):0
Visibility: greater than 7 mile(s):0
Sky conditions: mostly cloudy
Weather: light rain showers
Temperature: 50 F (10 C)
Dew Point: 44 F (7 C)
Relative Humidity: 81%
Pressure (altimeter): 29.97 in. Hg (1015 hPa)
ob: EBCI 221450Z 25010KT 230V290 9999 -SHRA FEW020 BKN040 10/07 Q1015 TEMPO 3500 SHRA BR
cycle: 15

Bruxelles National, Belgium (EBBR) 50-54N 004-32E 58M
Oct 22, 2017 - 10:50 AM EDT / 2017.10.22 1450 UTC
Wind: from the W (260 degrees) at 13 MPH (11 KT):0
Visibility: greater than 7 mile(s):0
Sky conditions: partly cloudy
Temperature: 51 F (11 C)
Dew Point: 42 F (6 C)
Relative Humidity: 71%
Pressure (altimeter): 29.94 in. Hg (1014 hPa)
ob: EBBR 221450Z 26011KT 9999 FEW027 SCT031 11/06 Q1014 NOSIG
cycle: 15

Koksijde, Belgium (EBFN) 51-05N 002-39E 9M
Oct 22, 2017 - 10:55 AM EDT / 2017.10.22 1455 UTC
Wind: from the W (280 degrees) at 18 MPH (16 KT):0
Visibility: greater than 7 mile(s):0
Sky conditions: mostly cloudy
Temperature: 53 F (12 C)
Dew Point: 41 F (5 C)
Relative Humidity: 62%
Pressure (altimeter): 29.94 in. Hg (1014 hPa)
ob: EBFN 221455Z AUTO 28016KT 9999 BKN036/// 12/05 Q1014 BLU
cycle: 15

Poznan, Poland (EPPO) 52-25N 016-50E 92M
Oct 22, 2017 - 11:00 AM EDT / 2017.10.22 1500 UTC
Wind: from the WSW (240 degrees) at 6 MPH (5 KT):0
Visibility: greater than 7 mile(s):0
Sky conditions: mostly clear
Temperature: 53 F (12 C)
Dew Point: 48 F (9 C)
Relative Humidity: 81%
Pressure (altimeter): 29.85 in. Hg (1011 hPa)
ob: EPPO 221500Z 24005KT 9999 FEW033 12/09 Q1011 
cycle: 15



Coucher du Soleil:
18:38:43

Lever de Lune:
09:41:59 21/10/17

Coucher de Lune:
19:50:32 21/10/17

Premier Quartier 27 octobre 2017
Pleine Lune 4 novembre 2017
Dernier Quartier 10 novembre 2017
Nouvelle Lune 18 novembre 2017
Âge de lune : 1 jours,23 heures,48 minutes,5%
Les heures du jour possible étaient aujourd’hui 10:23